createdAt,value
2019-04-28T00:00:36.934Z,1006.71
2019-04-28T00:01:36.926Z,1006.74
2019-04-28T00:02:36.911Z,1006.72
2019-04-28T00:03:36.899Z,1006.71
2019-04-28T00:04:36.899Z,1006.72
2019-04-28T00:05:36.882Z,1006.72
2019-04-28T00:06:36.867Z,1006.72
2019-04-28T00:07:36.855Z,1006.70
2019-04-28T00:08:36.847Z,1006.68
2019-04-28T00:09:36.843Z,1006.71
2019-04-28T00:10:36.823Z,1006.71
2019-04-28T00:11:36.814Z,1006.70
2019-04-28T00:12:36.813Z,1006.70
2019-04-28T00:13:36.791Z,1006.70
2019-04-28T00:14:36.790Z,1006.77
2019-04-28T00:15:36.772Z,1006.75
2019-04-28T00:16:36.759Z,1006.80
2019-04-28T00:17:36.747Z,1006.78
2019-04-28T00:18:36.737Z,1006.83
2019-04-28T00:19:36.767Z,1006.80
2019-04-28T00:20:36.716Z,1006.81
2019-04-28T00:21:36.707Z,1006.81
2019-04-28T00:22:36.694Z,1006.81
2019-04-28T00:23:36.683Z,1006.76
2019-04-28T00:24:36.676Z,1006.78
2019-04-28T00:25:36.672Z,1006.83
2019-04-28T00:26:36.651Z,1006.84
2019-04-28T00:27:36.641Z,1006.85
2019-04-28T00:28:36.629Z,1006.84
2019-04-28T00:29:41.355Z,1006.90
2019-04-28T00:30:37.615Z,1006.85
2019-04-28T00:31:36.597Z,1006.86
2019-04-28T00:32:36.588Z,1006.86
2019-04-28T00:33:36.576Z,1006.87
2019-04-28T00:34:36.571Z,1006.85
2019-04-28T00:35:36.563Z,1006.88
2019-04-28T00:36:36.543Z,1006.86
2019-04-28T00:37:36.532Z,1006.87
2019-04-28T00:38:36.522Z,1006.86
2019-04-28T00:39:36.510Z,1006.85
2019-04-28T00:40:36.507Z,1006.84
2019-04-28T00:41:36.489Z,1006.85
2019-04-28T00:42:36.477Z,1006.83
2019-04-28T00:43:36.466Z,1006.84
2019-04-28T00:44:36.456Z,1006.82
2019-04-28T00:45:36.456Z,1006.83
2019-04-28T00:46:36.433Z,1006.81
2019-04-28T00:47:36.426Z,1006.81
2019-04-28T00:48:36.414Z,1006.87
2019-04-28T00:49:36.412Z,1006.85
2019-04-28T00:50:36.401Z,1006.83
2019-04-28T00:51:36.379Z,1006.84
2019-04-28T00:52:36.372Z,1006.78
2019-04-28T00:53:36.365Z,1006.82
2019-04-28T00:54:36.346Z,1006.84
2019-04-28T00:55:36.345Z,1006.83
2019-04-28T00:56:36.325Z,1006.85
2019-04-28T00:57:36.318Z,1006.90
2019-04-28T00:58:36.303Z,1006.90
2019-04-28T00:59:36.294Z,1006.87
2019-04-28T01:00:36.291Z,1006.89
2019-04-28T01:01:36.271Z,1006.89
2019-04-28T01:02:36.260Z,1006.90
2019-04-28T01:03:36.250Z,1006.91
2019-04-28T01:04:36.239Z,1006.89
2019-04-28T01:05:36.242Z,1006.91
2019-04-28T01:06:36.216Z,1006.95
2019-04-28T01:07:36.208Z,1006.95
2019-04-28T01:08:36.196Z,1006.95
2019-04-28T01:09:36.184Z,1007.00
2019-04-28T01:10:36.198Z,1006.98
2019-04-28T01:11:36.164Z,1006.97
2019-04-28T01:12:36.151Z,1006.99
2019-04-28T01:13:36.141Z,1007.01
2019-04-28T01:14:36.130Z,1007.01
2019-04-28T01:15:36.119Z,1007.07
2019-04-28T01:16:36.116Z,1007.02
2019-04-28T01:17:36.098Z,1007.09
2019-04-28T01:18:36.088Z,1007.05
2019-04-28T01:19:36.076Z,1007.06
2019-04-28T01:20:36.066Z,1007.05
2019-04-28T01:21:36.062Z,1007.06
2019-04-28T01:22:36.044Z,1007.10
2019-04-28T01:23:36.032Z,1007.08
2019-04-28T01:24:36.023Z,1007.11
2019-04-28T01:25:36.010Z,1007.13
2019-04-28T01:26:36.007Z,1007.10
2019-04-28T01:27:35.989Z,1007.09
2019-04-28T01:28:35.978Z,1007.11
2019-04-28T01:29:35.968Z,1007.11
2019-04-28T01:30:35.956Z,1007.18
2019-04-28T01:31:35.955Z,1007.14
2019-04-28T01:32:35.936Z,1007.13
2019-04-28T01:33:35.925Z,1007.17
2019-04-28T01:34:35.914Z,1007.15
2019-04-28T01:35:35.902Z,1007.18
2019-04-28T01:36:35.905Z,1007.19
2019-04-28T01:37:35.880Z,1007.15
2019-04-28T01:38:35.870Z,1007.15
2019-04-28T01:39:35.862Z,1007.18
2019-04-28T01:40:35.847Z,1007.18
2019-04-28T01:41:35.846Z,1007.19
2019-04-28T01:42:35.826Z,1007.18
2019-04-28T01:43:35.815Z,1007.22
2019-04-28T01:44:35.809Z,1007.21
2019-04-28T01:45:35.798Z,1007.25
2019-04-28T01:46:35.793Z,1007.26
2019-04-28T01:47:35.772Z,1007.25
2019-04-28T01:48:35.763Z,1007.24
2019-04-28T01:49:35.757Z,1007.26
2019-04-28T01:50:35.739Z,1007.27
2019-04-28T01:51:35.738Z,1007.28
2019-04-28T01:52:35.723Z,1007.27
2019-04-28T01:53:35.708Z,1007.34
2019-04-28T01:54:35.696Z,1007.30
2019-04-28T01:55:35.684Z,1007.31
2019-04-28T01:56:35.686Z,1007.34
2019-04-28T01:57:35.663Z,1007.35
2019-04-28T01:58:35.653Z,1007.35
2019-04-28T01:59:35.644Z,1007.34
2019-04-28T02:00:35.630Z,1007.34
2019-04-28T02:01:35.621Z,1007.35
2019-04-28T02:02:35.618Z,1007.38
2019-04-28T02:03:35.597Z,1007.35
2019-04-28T02:04:35.588Z,1007.36
2019-04-28T02:05:35.576Z,1007.36
2019-04-28T02:06:35.566Z,1007.37
2019-04-28T02:07:35.561Z,1007.32
2019-04-28T02:08:35.547Z,1007.36
2019-04-28T02:09:35.532Z,1007.38
2019-04-28T02:10:35.521Z,1007.38
2019-04-28T02:11:35.512Z,1007.36
2019-04-28T02:12:35.517Z,1007.35
2019-04-28T02:13:35.488Z,1007.39
2019-04-28T02:14:35.478Z,1007.41
2019-04-28T02:15:35.472Z,1007.39
2019-04-28T02:16:35.462Z,1007.39
2019-04-28T02:17:35.455Z,1007.39
2019-04-28T02:18:35.434Z,1007.39
2019-04-28T02:19:35.425Z,1007.42
2019-04-28T02:20:35.412Z,1007.41
2019-04-28T02:21:35.401Z,1007.45
2019-04-28T02:22:35.401Z,1007.47
2019-04-28T02:23:35.384Z,1007.41
2019-04-28T02:24:35.370Z,1007.46
2019-04-28T02:25:35.362Z,1007.51
2019-04-28T02:26:35.348Z,1007.51
2019-04-28T02:27:35.347Z,1007.54
2019-04-28T02:28:35.326Z,1007.55
2019-04-28T02:29:35.317Z,1007.56
2019-04-28T02:30:45.406Z,1007.50
2019-04-28T02:31:36.293Z,1007.56
2019-04-28T02:32:35.294Z,1007.56
2019-04-28T02:33:35.273Z,1007.58
2019-04-28T02:34:35.262Z,1007.56
2019-04-28T02:35:35.267Z,1007.55
2019-04-28T02:36:35.243Z,1007.55
2019-04-28T02:37:35.239Z,1007.57
2019-04-28T02:38:35.224Z,1007.56
2019-04-28T02:39:35.208Z,1007.56
2019-04-28T02:40:35.197Z,1007.54
2019-04-28T02:41:35.192Z,1007.59
2019-04-28T02:42:35.185Z,1007.65
2019-04-28T02:43:35.169Z,1007.59
2019-04-28T02:44:35.395Z,1007.61
2019-04-28T02:45:35.141Z,1007.62
2019-04-28T02:46:35.132Z,1007.69
2019-04-28T02:47:35.128Z,1007.67
2019-04-28T02:48:35.109Z,1007.65
2019-04-28T02:49:35.098Z,1007.66
2019-04-28T02:50:35.087Z,1007.73
2019-04-28T02:51:35.076Z,1007.68
2019-04-28T02:52:35.104Z,1007.68
2019-04-28T02:53:35.055Z,1007.72
2019-04-28T02:54:35.046Z,1007.67
2019-04-28T02:55:35.033Z,1007.72
2019-04-28T02:56:35.024Z,1007.72
2019-04-28T02:57:35.013Z,1007.69
2019-04-28T02:58:35.011Z,1007.73
2019-04-28T02:59:34.992Z,1007.73
2019-04-28T03:00:34.987Z,1007.74
2019-04-28T03:01:34.969Z,1007.81
2019-04-28T03:02:34.964Z,1007.75
2019-04-28T03:03:34.959Z,1007.84
2019-04-28T03:04:34.939Z,1007.86
2019-04-28T03:05:34.932Z,1007.86
2019-04-28T03:06:34.915Z,1007.89
2019-04-28T03:07:34.904Z,1007.91
2019-04-28T03:08:34.901Z,1007.88
2019-04-28T03:09:34.881Z,1007.90
2019-04-28T03:10:34.871Z,1007.91
2019-04-28T03:11:34.864Z,1007.91
2019-04-28T03:12:34.849Z,1007.88
2019-04-28T03:13:34.852Z,1007.86
2019-04-28T03:14:34.827Z,1007.87
2019-04-28T03:15:34.818Z,1007.88
2019-04-28T03:16:34.806Z,1007.83
2019-04-28T03:17:34.795Z,1007.87
2019-04-28T03:18:34.795Z,1007.84
2019-04-28T03:19:34.776Z,1007.84
2019-04-28T03:20:34.764Z,1007.83
2019-04-28T03:21:34.758Z,1007.82
2019-04-28T03:22:34.742Z,1007.88
2019-04-28T03:23:34.741Z,1007.89
2019-04-28T03:24:34.756Z,1007.90
2019-04-28T03:25:34.709Z,1007.96
2019-04-28T03:26:34.700Z,1008.05
2019-04-28T03:27:34.688Z,1008.01
2019-04-28T03:28:34.686Z,1007.96
2019-04-28T03:29:34.671Z,1008.05
2019-04-28T03:30:34.657Z,1007.99
2019-04-28T03:32:01.608Z,1008.02
2019-04-28T03:32:45.475Z,1007.95
2019-04-28T03:33:41.890Z,1007.99
2019-04-28T03:34:36.552Z,1007.98
2019-04-28T03:35:34.605Z,1007.97
2019-04-28T03:36:34.594Z,1008.02
2019-04-28T03:37:34.583Z,1008.00
2019-04-28T03:38:34.572Z,1008.07
2019-04-28T03:39:34.569Z,1008.04
2019-04-28T03:40:34.554Z,1008.03
2019-04-28T03:41:34.540Z,1008.02
2019-04-28T03:42:34.531Z,1008.05
2019-04-28T03:43:34.518Z,1008.07
2019-04-28T03:44:34.518Z,1008.05
2019-04-28T03:45:34.497Z,1008.07
2019-04-28T03:46:34.486Z,1008.11
2019-04-28T03:47:34.481Z,1008.12
2019-04-28T03:48:34.469Z,1008.09
2019-04-28T03:49:34.470Z,1008.09
2019-04-28T03:50:34.444Z,1008.11
2019-04-28T03:51:34.434Z,1008.13
2019-04-28T03:52:34.423Z,1008.13
2019-04-28T03:53:34.413Z,1008.13
2019-04-28T03:54:34.410Z,1008.13
2019-04-28T03:55:35.041Z,1008.14
2019-04-28T03:56:34.383Z,1008.12
2019-04-28T03:57:34.377Z,1008.14
2019-04-28T03:58:34.361Z,1008.16
2019-04-28T03:59:34.357Z,1008.13
2019-04-28T04:00:34.337Z,1008.13
2019-04-28T04:01:34.326Z,1008.15
2019-04-28T04:02:34.318Z,1008.15
2019-04-28T04:03:34.306Z,1008.18
2019-04-28T04:04:34.306Z,1008.22
2019-04-28T04:05:34.283Z,1008.25
2019-04-28T04:06:34.280Z,1008.26
2019-04-28T04:07:34.262Z,1008.26
2019-04-28T04:08:34.253Z,1008.28
2019-04-28T04:09:34.249Z,1008.27
2019-04-28T04:10:34.239Z,1008.27
2019-04-28T04:11:34.222Z,1008.27
2019-04-28T04:12:34.209Z,1008.28
2019-04-28T04:13:34.199Z,1008.27
2019-04-28T04:14:34.200Z,1008.26
2019-04-28T04:15:34.178Z,1008.29
2019-04-28T04:16:34.174Z,1008.25
2019-04-28T04:17:34.158Z,1008.30
2019-04-28T04:18:34.145Z,1008.38
2019-04-28T04:19:34.170Z,1008.34
2019-04-28T04:20:34.136Z,1008.41
2019-04-28T04:21:34.125Z,1008.41
2019-04-28T04:22:34.105Z,1008.45
2019-04-28T04:23:34.094Z,1008.39
2019-04-28T04:24:34.084Z,1008.43
2019-04-28T04:25:34.080Z,1008.43
2019-04-28T04:26:34.065Z,1008.45
2019-04-28T04:27:34.050Z,1008.40
2019-04-28T04:28:34.041Z,1008.55
2019-04-28T04:29:34.029Z,1008.57
2019-04-28T04:30:34.027Z,1008.55
2019-04-28T04:31:34.014Z,1008.61
2019-04-28T04:32:34.218Z,1008.64
2019-04-28T04:33:33.987Z,1008.60
2019-04-28T04:34:33.978Z,1008.63
2019-04-28T04:35:33.974Z,1008.66
2019-04-28T04:36:33.955Z,1008.60
2019-04-28T04:37:33.950Z,1008.66
2019-04-28T04:38:33.934Z,1008.63
2019-04-28T04:39:33.927Z,1008.60
2019-04-28T04:40:33.920Z,1008.67
2019-04-28T04:41:33.901Z,1008.65
2019-04-28T04:42:33.893Z,1008.67
2019-04-28T04:43:33.880Z,1008.61
2019-04-28T04:44:37.718Z,1008.73
2019-04-28T04:45:33.869Z,1008.69
2019-04-28T04:46:33.866Z,1008.72
2019-04-28T04:47:33.838Z,1008.74
2019-04-28T04:48:33.828Z,1008.78
2019-04-28T04:49:33.819Z,1008.71
2019-04-28T04:50:33.813Z,1008.77
2019-04-28T04:51:33.793Z,1008.71
2019-04-28T04:52:33.783Z,1008.71
2019-04-28T04:53:33.773Z,1008.80
2019-04-28T04:54:36.785Z,1008.76
2019-04-28T04:55:33.760Z,1008.74
2019-04-28T04:56:33.743Z,1008.79
2019-04-28T04:57:33.731Z,1008.84
2019-04-28T04:58:33.719Z,1008.82
2019-04-28T04:59:33.707Z,1008.87
2019-04-28T05:00:33.707Z,1008.90
2019-04-28T05:01:33.690Z,1008.89
2019-04-28T05:02:33.677Z,1008.90
2019-04-28T05:03:33.663Z,1008.90
2019-04-28T05:04:33.655Z,1008.95
2019-04-28T05:05:33.652Z,1008.92
2019-04-28T05:06:33.630Z,1008.95
2019-04-28T05:07:33.619Z,1009.00
2019-04-28T05:08:33.611Z,1009.01
2019-04-28T05:09:33.599Z,1009.03
2019-04-28T05:10:33.624Z,1009.03
2019-04-28T05:11:33.577Z,1009.10
2019-04-28T05:12:33.568Z,1009.13
2019-04-28T05:13:33.558Z,1009.07
2019-04-28T05:14:33.551Z,1009.09
2019-04-28T05:15:33.539Z,1009.00
2019-04-28T05:16:33.532Z,1009.03
2019-04-28T05:17:33.515Z,1009.04
2019-04-28T05:18:33.505Z,1009.04
2019-04-28T05:19:33.492Z,1009.08
2019-04-28T05:20:33.481Z,1009.03
2019-04-28T05:21:33.611Z,1009.03
2019-04-28T05:22:33.460Z,1008.97
2019-04-28T05:23:33.449Z,1008.99
2019-04-28T05:24:33.439Z,1009.03
2019-04-28T05:25:33.428Z,1008.99
2019-04-28T05:26:33.429Z,1008.92
2019-04-28T05:27:33.407Z,1008.94
2019-04-28T05:28:37.001Z,1009.00
2019-04-28T05:29:34.384Z,1009.02
2019-04-28T05:30:34.934Z,1009.06
2019-04-28T05:31:34.371Z,1009.13
2019-04-28T05:32:42.311Z,1009.16
2019-04-28T05:33:34.347Z,1009.22
2019-04-28T05:34:33.332Z,1009.31
2019-04-28T05:35:35.536Z,1009.29
2019-04-28T05:36:41.202Z,1009.29
2019-04-28T05:37:34.297Z,1009.29
2019-04-28T05:38:33.289Z,1009.31
2019-04-28T05:39:33.277Z,1009.31
2019-04-28T05:40:33.269Z,1009.32
2019-04-28T05:41:33.264Z,1009.30
2019-04-28T05:42:33.245Z,1009.34
2019-04-28T05:43:33.239Z,1009.38
2019-04-28T05:44:33.224Z,1009.40
2019-04-28T05:45:33.213Z,1009.40
2019-04-28T05:46:33.211Z,1009.42
2019-04-28T05:47:33.192Z,1009.42
2019-04-28T05:48:33.186Z,1009.42
2019-04-28T05:49:33.170Z,1009.38
2019-04-28T05:50:33.159Z,1009.41
2019-04-28T05:51:33.160Z,1009.44
2019-04-28T05:52:33.137Z,1009.38
2019-04-28T05:53:33.131Z,1009.42
2019-04-28T05:54:33.121Z,1009.46
2019-04-28T05:55:33.107Z,1009.47
2019-04-28T05:56:33.106Z,1009.51
2019-04-28T05:57:33.084Z,1009.47
2019-04-28T05:58:33.075Z,1009.50
2019-04-28T05:59:33.063Z,1009.54
2019-04-28T06:00:33.059Z,1009.55
2019-04-28T06:01:33.056Z,1009.56
2019-04-28T06:02:33.031Z,1009.55
2019-04-28T06:03:33.021Z,1009.54
2019-04-28T06:04:33.011Z,1009.60
2019-04-28T06:05:33.000Z,1009.63
2019-04-28T06:06:33.001Z,1009.61
2019-04-28T06:07:32.977Z,1009.65
2019-04-28T06:08:32.967Z,1009.61
2019-04-28T06:09:32.958Z,1009.65
2019-04-28T06:10:32.946Z,1009.67
2019-04-28T06:11:32.947Z,1009.64
2019-04-28T06:12:32.925Z,1009.64
2019-04-28T06:13:32.914Z,1009.68
2019-04-28T06:14:32.903Z,1009.72
2019-04-28T06:15:32.891Z,1009.73
2019-04-28T06:16:33.079Z,1009.73
2019-04-28T06:17:32.872Z,1009.73
2019-04-28T06:18:32.863Z,1009.74
2019-04-28T06:19:32.851Z,1009.75
2019-04-28T06:20:32.847Z,1009.67
2019-04-28T06:21:32.828Z,1009.68
2019-04-28T06:22:32.828Z,1009.69
2019-04-28T06:23:32.812Z,1009.71
2019-04-28T06:24:32.794Z,1009.71
2019-04-28T06:25:32.787Z,1009.70
2019-04-28T06:26:32.780Z,1009.68
2019-04-28T06:27:32.905Z,1009.71
2019-04-28T06:28:32.751Z,1009.73
2019-04-28T06:29:32.740Z,1009.76
2019-04-28T06:30:32.730Z,1009.73
2019-04-28T06:31:32.721Z,1009.73
2019-04-28T06:32:32.716Z,1009.71
2019-04-28T06:33:32.697Z,1009.68
2019-04-28T06:34:32.687Z,1009.70
2019-04-28T06:35:32.677Z,1009.72
2019-04-28T06:36:32.665Z,1009.64
2019-04-28T06:37:32.665Z,1009.64
2019-04-28T06:38:32.644Z,1009.67
2019-04-28T06:39:32.633Z,1009.69
2019-04-28T06:40:32.621Z,1009.68
2019-04-28T06:41:32.613Z,1009.69
2019-04-28T06:42:32.609Z,1009.69
2019-04-28T06:43:32.589Z,1009.71
2019-04-28T06:44:32.578Z,1009.68
2019-04-28T06:45:32.576Z,1009.67
2019-04-28T06:46:32.558Z,1009.67
2019-04-28T06:47:32.554Z,1009.73
2019-04-28T06:48:32.538Z,1009.72
2019-04-28T06:49:32.524Z,1009.72
2019-04-28T06:50:32.561Z,1009.75
2019-04-28T06:51:32.507Z,1009.75
2019-04-28T06:52:32.500Z,1009.79
2019-04-28T06:53:32.481Z,1009.74
2019-04-28T06:54:32.470Z,1009.76
2019-04-28T06:55:32.460Z,1009.73
2019-04-28T06:56:32.450Z,1009.73
2019-04-28T06:57:32.448Z,1009.76
2019-04-28T06:58:32.429Z,1009.71
2019-04-28T06:59:32.418Z,1009.77
2019-04-28T07:00:32.406Z,1009.82
2019-04-28T07:01:32.398Z,1009.74
2019-04-28T07:02:32.397Z,1009.73
2019-04-28T07:03:32.374Z,1009.77
2019-04-28T07:04:32.365Z,1009.75
2019-04-28T07:05:32.354Z,1009.71
2019-04-28T07:06:32.342Z,1009.74
2019-04-28T07:07:32.341Z,1009.73
2019-04-28T07:08:32.321Z,1009.73
2019-04-28T07:09:32.312Z,1009.71
2019-04-28T07:10:32.302Z,1009.75
2019-04-28T07:11:32.288Z,1009.75
2019-04-28T07:12:32.285Z,1009.72
2019-04-28T07:13:32.266Z,1009.78
2019-04-28T07:14:32.257Z,1009.74
2019-04-28T07:15:32.247Z,1009.77
2019-04-28T07:16:32.239Z,1009.76
2019-04-28T07:17:32.267Z,1009.80
2019-04-28T07:18:32.213Z,1009.78
2019-04-28T07:19:33.523Z,1009.81
2019-04-28T07:20:32.193Z,1009.82
2019-04-28T07:21:32.187Z,1009.83
2019-04-28T07:22:32.185Z,1009.87
2019-04-28T07:23:32.175Z,1009.82
2019-04-28T07:24:32.148Z,1009.83
2019-04-28T07:25:32.138Z,1009.84
2019-04-28T07:26:32.134Z,1009.85
2019-04-28T07:27:32.117Z,1009.84
2019-04-28T07:28:32.117Z,1009.87
2019-04-28T07:29:32.096Z,1009.84
2019-04-28T07:30:32.085Z,1009.91
2019-04-28T07:31:32.074Z,1009.87
2019-04-28T07:32:32.064Z,1009.89
2019-04-28T07:33:36.197Z,1009.94
2019-04-28T07:34:32.041Z,1009.95
2019-04-28T07:35:32.031Z,1009.96
2019-04-28T07:36:32.021Z,1010.03
2019-04-28T07:37:32.012Z,1010.03
2019-04-28T07:38:32.014Z,1010.05
2019-04-28T07:39:31.990Z,1010.04
2019-04-28T07:40:31.979Z,1010.08
2019-04-28T07:41:31.971Z,1010.14
2019-04-28T07:42:31.955Z,1010.16
2019-04-28T07:43:31.955Z,1010.15
2019-04-28T07:44:31.935Z,1010.14
2019-04-28T07:45:31.929Z,1010.16
2019-04-28T07:46:31.915Z,1010.17
2019-04-28T07:47:31.902Z,1010.20
2019-04-28T07:48:31.901Z,1010.22
2019-04-28T07:49:31.881Z,1010.28
2019-04-28T07:50:31.876Z,1010.22
2019-04-28T07:51:31.860Z,1010.30
2019-04-28T07:52:31.852Z,1010.23
2019-04-28T07:53:31.846Z,1010.23
2019-04-28T07:54:31.827Z,1010.31
2019-04-28T07:55:31.822Z,1010.27
2019-04-28T07:56:31.807Z,1010.30
2019-04-28T07:57:31.795Z,1010.35
2019-04-28T07:58:31.792Z,1010.30
2019-04-28T07:59:31.774Z,1010.29
2019-04-28T08:00:31.765Z,1010.34
2019-04-28T08:01:31.752Z,1010.33
2019-04-28T08:02:31.742Z,1010.31
2019-04-28T08:03:31.746Z,1010.33
2019-04-28T08:04:31.721Z,1010.34
2019-04-28T08:05:31.708Z,1010.32
2019-04-28T08:06:31.698Z,1010.35
2019-04-28T08:07:31.688Z,1010.32
2019-04-28T08:08:31.870Z,1010.39
2019-04-28T08:09:31.710Z,1010.40
2019-04-28T08:10:31.655Z,1010.47
2019-04-28T08:11:31.653Z,1010.41
2019-04-28T08:12:31.634Z,1010.43
2019-04-28T08:13:31.622Z,1010.44
2019-04-28T08:14:31.621Z,1010.44
2019-04-28T08:15:31.603Z,1010.52
2019-04-28T08:16:31.627Z,1010.49
2019-04-28T08:17:31.582Z,1010.49
2019-04-28T08:18:31.747Z,1010.47
2019-04-28T08:19:31.566Z,1010.51
2019-04-28T08:20:31.607Z,1010.57
2019-04-28T08:21:31.541Z,1010.60
2019-04-28T08:22:31.525Z,1010.60
2019-04-28T08:23:31.516Z,1010.63
2019-04-28T08:24:31.514Z,1010.62
2019-04-28T08:25:31.492Z,1010.62
2019-04-28T08:26:31.486Z,1010.62
2019-04-28T08:27:31.471Z,1010.69
2019-04-28T08:28:31.459Z,1010.70
2019-04-28T08:29:31.459Z,1010.72
2019-04-28T08:30:31.438Z,1010.76
2019-04-28T08:31:31.430Z,1010.79
2019-04-28T08:32:31.418Z,1010.80
2019-04-28T08:33:33.215Z,1010.84
2019-04-28T08:34:31.404Z,1010.82
2019-04-28T08:35:31.385Z,1010.83
2019-04-28T08:36:31.374Z,1010.91
2019-04-28T08:37:31.366Z,1010.88
2019-04-28T08:38:31.354Z,1010.99
2019-04-28T08:39:31.350Z,1010.94
2019-04-28T08:40:31.330Z,1011.02
2019-04-28T08:41:31.326Z,1010.98
2019-04-28T08:42:31.313Z,1011.02
2019-04-28T08:43:31.306Z,1011.03
2019-04-28T08:44:31.296Z,1011.13
2019-04-28T08:45:31.275Z,1011.09
2019-04-28T08:46:31.265Z,1011.13
2019-04-28T08:47:31.262Z,1011.14
2019-04-28T08:48:31.251Z,1011.21
2019-04-28T08:49:31.249Z,1011.20
2019-04-28T08:50:31.222Z,1011.23
2019-04-28T08:51:31.211Z,1011.23
2019-04-28T08:52:31.206Z,1011.24
2019-04-28T08:53:31.195Z,1011.27
2019-04-28T08:54:31.186Z,1011.31
2019-04-28T08:55:31.168Z,1011.31
2019-04-28T08:56:31.157Z,1011.37
2019-04-28T08:57:31.149Z,1011.23
2019-04-28T08:58:31.136Z,1011.21
2019-04-28T08:59:31.135Z,1011.23
2019-04-28T09:00:31.112Z,1011.30
2019-04-28T09:01:31.104Z,1011.32
2019-04-28T09:02:31.091Z,1011.32
2019-04-28T09:03:31.084Z,1011.37
2019-04-28T09:04:31.090Z,1011.35
2019-04-28T09:05:31.059Z,1011.31
2019-04-28T09:06:31.051Z,1011.33
2019-04-28T09:07:31.042Z,1011.38
2019-04-28T09:08:31.028Z,1011.40
2019-04-28T09:09:31.016Z,1011.45
2019-04-28T09:10:31.014Z,1011.39
2019-04-28T09:11:31.006Z,1011.40
2019-04-28T09:12:30.988Z,1011.38
2019-04-28T09:13:30.975Z,1011.38
2019-04-28T09:14:30.963Z,1011.42
2019-04-28T09:15:30.965Z,1011.36
2019-04-28T09:16:30.947Z,1011.36
2019-04-28T09:17:30.935Z,1011.36
2019-04-28T09:18:30.923Z,1011.38
2019-04-28T09:19:30.911Z,1011.42
2019-04-28T09:20:30.910Z,1011.40
2019-04-28T09:21:30.888Z,1011.40
2019-04-28T09:22:30.876Z,1011.43
2019-04-28T09:23:30.869Z,1011.48
2019-04-28T09:24:30.855Z,1011.46
2019-04-28T09:25:30.856Z,1011.58
2019-04-28T09:26:30.834Z,1011.50
2019-04-28T09:27:30.828Z,1011.50
2019-04-28T09:28:30.816Z,1011.51
2019-04-28T09:29:30.801Z,1011.52
2019-04-28T09:30:30.801Z,1011.52
2019-04-28T09:31:30.781Z,1011.55
2019-04-28T09:32:30.773Z,1011.54
2019-04-28T09:33:30.765Z,1011.56
2019-04-28T09:34:30.751Z,1011.61
2019-04-28T09:35:30.752Z,1011.58
2019-04-28T09:36:30.731Z,1011.53
2019-04-28T09:37:30.718Z,1011.58
2019-04-28T09:38:30.710Z,1011.57
2019-04-28T09:39:30.699Z,1011.66
2019-04-28T09:40:30.699Z,1011.69
2019-04-28T09:41:30.676Z,1011.64
2019-04-28T09:42:30.665Z,1011.63
2019-04-28T09:43:30.653Z,1011.68
2019-04-28T09:44:30.644Z,1011.69
2019-04-28T09:45:30.641Z,1011.73
2019-04-28T09:46:30.622Z,1011.71
2019-04-28T09:47:30.616Z,1011.64
2019-04-28T09:48:30.604Z,1011.64
2019-04-28T09:49:30.591Z,1011.62
2019-04-28T09:50:30.591Z,1011.63
2019-04-28T09:51:30.571Z,1011.67
2019-04-28T09:52:30.561Z,1011.66
2019-04-28T09:53:30.554Z,1011.71
2019-04-28T09:54:30.540Z,1011.67
2019-04-28T09:55:30.536Z,1011.74
2019-04-28T09:56:30.518Z,1011.76
2019-04-28T09:57:30.509Z,1011.73
2019-04-28T09:58:30.496Z,1011.76
2019-04-28T09:59:30.486Z,1011.78
2019-04-28T10:00:30.492Z,1011.83
2019-04-28T10:01:30.464Z,1011.91
2019-04-28T10:02:30.456Z,1011.95
2019-04-28T10:03:30.450Z,1011.89
2019-04-28T10:04:40.970Z,1011.90
2019-04-28T10:05:31.432Z,1011.90
2019-04-28T10:06:30.412Z,1011.93
2019-04-28T10:07:30.402Z,1011.89
2019-04-28T10:08:30.391Z,1011.84
2019-04-28T10:09:30.380Z,1011.86
2019-04-28T10:10:30.371Z,1011.88
2019-04-28T10:11:30.938Z,1011.86
2019-04-28T10:12:30.894Z,1011.89
2019-04-28T10:13:30.340Z,1011.87
2019-04-28T10:14:30.329Z,1011.88
2019-04-28T10:15:30.366Z,1011.83
2019-04-28T10:16:30.317Z,1011.85
2019-04-28T10:17:30.298Z,1011.82
2019-04-28T10:18:30.288Z,1011.88
2019-04-28T10:19:32.539Z,1011.91
2019-04-28T10:20:30.267Z,1011.86
2019-04-28T10:21:30.264Z,1011.85
2019-04-28T10:22:30.247Z,1011.88
2019-04-28T10:23:30.233Z,1011.82
2019-04-28T10:24:30.222Z,1011.81
2019-04-28T10:25:30.212Z,1011.81
2019-04-28T10:26:30.214Z,1011.80
2019-04-28T10:27:30.191Z,1011.85
2019-04-28T10:28:30.182Z,1011.87
2019-04-28T10:29:32.886Z,1011.84
2019-04-28T10:30:30.158Z,1011.84
2019-04-28T10:31:30.158Z,1011.88
2019-04-28T10:32:30.154Z,1011.86
2019-04-28T10:33:30.127Z,1011.90
2019-04-28T10:34:30.113Z,1011.92
2019-04-28T10:35:30.103Z,1011.91
2019-04-28T10:36:30.101Z,1011.89
2019-04-28T10:37:30.081Z,1011.91
2019-04-28T10:38:30.069Z,1011.94
2019-04-28T10:39:30.060Z,1011.91
2019-04-28T10:40:30.047Z,1011.89
2019-04-28T10:41:30.066Z,1011.88
2019-04-28T10:42:30.027Z,1011.82
2019-04-28T10:43:30.014Z,1011.87
2019-04-28T10:44:30.002Z,1011.90
2019-04-28T10:45:29.991Z,1011.89
2019-04-28T10:46:29.982Z,1011.89
2019-04-28T10:47:29.978Z,1011.92
2019-04-28T10:48:29.961Z,1011.92
2019-04-28T10:49:29.947Z,1011.91
2019-04-28T10:50:29.937Z,1011.91
2019-04-28T10:51:29.928Z,1011.93
2019-04-28T10:52:29.923Z,1012.02
2019-04-28T10:53:29.902Z,1012.00
2019-04-28T10:54:29.891Z,1011.99
2019-04-28T10:55:29.883Z,1011.98
2019-04-28T10:56:29.870Z,1011.98
2019-04-28T10:57:29.869Z,1011.96
2019-04-28T10:58:29.850Z,1011.99
2019-04-28T10:59:29.838Z,1012.01
2019-04-28T11:00:29.826Z,1012.02
2019-04-28T11:01:29.821Z,1012.01
2019-04-28T11:02:29.814Z,1012.01
2019-04-28T11:03:29.796Z,1011.98
2019-04-28T11:04:29.785Z,1012.08
2019-04-28T11:05:29.772Z,1012.06
2019-04-28T11:06:29.761Z,1012.02
2019-04-28T11:07:29.761Z,1012.05
2019-04-28T11:08:29.741Z,1012.08
2019-04-28T11:09:30.814Z,1012.01
2019-04-28T11:10:29.718Z,1012.06
2019-04-28T11:11:29.706Z,1012.02
2019-04-28T11:12:29.706Z,1012.04
2019-04-28T11:13:29.688Z,1012.01
2019-04-28T11:14:29.677Z,1012.00
2019-04-28T11:15:29.666Z,1012.01
2019-04-28T11:16:29.655Z,1011.96
2019-04-28T11:17:29.651Z,1011.99
2019-04-28T11:18:29.633Z,1012.03
2019-04-28T11:19:29.627Z,1012.02
2019-04-28T11:20:29.611Z,1012.00
2019-04-28T11:21:29.601Z,1012.03
2019-04-28T11:22:29.598Z,1012.01
2019-04-28T11:23:29.578Z,1012.03
2019-04-28T11:24:29.571Z,1012.06
2019-04-28T11:25:29.556Z,1012.05
2019-04-28T11:26:29.546Z,1012.13
2019-04-28T11:27:29.543Z,1012.10
2019-04-28T11:28:29.522Z,1012.03
2019-04-28T11:29:29.514Z,1012.00
2019-04-28T11:30:29.505Z,1011.93
2019-04-28T11:31:29.491Z,1012.00
2019-04-28T11:32:29.494Z,1012.06
2019-04-28T11:33:29.469Z,1012.07
2019-04-28T11:34:29.460Z,1012.04
2019-04-28T11:35:29.448Z,1012.05
2019-04-28T11:36:29.439Z,1012.08
2019-04-28T11:37:29.440Z,1012.04
2019-04-28T11:38:29.417Z,1012.07
2019-04-28T11:39:29.406Z,1012.04
2019-04-28T11:40:29.394Z,1012.05
2019-04-28T11:41:29.384Z,1012.02
2019-04-28T11:42:29.382Z,1012.07
2019-04-28T11:43:29.369Z,1012.06
2019-04-28T11:44:29.351Z,1012.04
2019-04-28T11:45:29.346Z,1012.04
2019-04-28T11:46:29.330Z,1012.07
2019-04-28T11:47:29.360Z,1012.08
2019-04-28T11:48:29.311Z,1012.06
2019-04-28T11:49:29.304Z,1012.11
2019-04-28T11:50:29.289Z,1012.11
2019-04-28T11:51:29.275Z,1012.12
2019-04-28T11:52:29.264Z,1012.12
2019-04-28T11:53:29.262Z,1012.02
2019-04-28T11:54:29.242Z,1012.08
2019-04-28T11:55:29.233Z,1012.07
2019-04-28T11:56:40.776Z,1012.12
2019-04-28T11:57:30.210Z,1012.13
2019-04-28T11:58:29.209Z,1012.15
2019-04-28T11:59:29.191Z,1012.13
2019-04-28T12:00:29.183Z,1012.16
2019-04-28T12:01:29.169Z,1012.13
2019-04-28T12:02:29.158Z,1012.15
2019-04-28T12:03:29.156Z,1012.16
2019-04-28T12:04:29.140Z,1012.14
2019-04-28T12:05:34.741Z,1012.22